createdAt,value
2019-04-26T00:00:42.489Z,73.10
2019-04-26T00:01:21.618Z,73.93
2019-04-26T00:02:04.934Z,66.40
2019-04-26T00:02:50.028Z,62.63
2019-04-26T00:03:32.523Z,70.20
2019-04-26T00:04:10.260Z,72.33
2019-04-26T00:04:47.718Z,69.73
2019-04-26T00:05:34.265Z,70.13
2019-04-26T00:06:05.816Z,73.50
2019-04-26T00:06:43.056Z,74.90
2019-04-26T00:07:20.867Z,64.93
2019-04-26T00:07:58.035Z,77.27
2019-04-26T00:08:35.991Z,71.77
2019-04-26T00:09:24.369Z,74.33
2019-04-26T00:10:03.624Z,70.43
2019-04-26T00:10:49.934Z,65.00
2019-04-26T00:11:46.299Z,73.57
2019-04-26T00:12:40.730Z,67.20
2019-04-26T00:13:52.718Z,74.40
2019-04-26T00:14:47.695Z,76.77
2019-04-26T00:15:42.905Z,70.17
2019-04-26T00:16:28.678Z,76.07
2019-04-26T00:17:17.784Z,78.03
2019-04-26T00:17:57.222Z,73.83
2019-04-26T00:18:34.982Z,67.08
2019-04-26T00:19:13.793Z,77.40
2019-04-26T00:19:51.042Z,77.37
2019-04-26T00:20:28.290Z,71.30
2019-04-26T00:21:06.234Z,70.60
2019-04-26T00:21:43.757Z,76.30
2019-04-26T00:22:21.654Z,72.33
2019-04-26T00:22:58.864Z,72.10
2019-04-26T00:23:36.136Z,75.60
2019-04-26T00:24:13.165Z,73.00
2019-04-26T00:24:50.437Z,68.27
2019-04-26T00:25:28.377Z,73.00
2019-04-26T00:26:06.012Z,71.63
2019-04-26T00:26:45.642Z,80.77
2019-04-26T00:27:25.882Z,79.93
2019-04-26T00:28:03.278Z,85.87
2019-04-26T00:28:42.319Z,77.57
2019-04-26T00:29:21.156Z,73.33
2019-04-26T00:29:58.870Z,79.60
2019-04-26T00:30:36.275Z,77.63
2019-04-26T00:31:17.185Z,74.27
2019-04-26T00:31:55.114Z,81.73
2019-04-26T00:32:34.400Z,73.63
2019-04-26T00:33:12.550Z,79.23
2019-04-26T00:33:50.696Z,75.00
2019-04-26T00:34:28.067Z,75.23
2019-04-26T00:35:06.422Z,78.60
2019-04-26T00:35:47.650Z,75.87
2019-04-26T00:36:22.917Z,75.60
2019-04-26T00:37:01.261Z,77.57
2019-04-26T00:37:38.384Z,73.23
2019-04-26T00:38:16.091Z,72.93
2019-04-26T00:38:53.250Z,83.07
2019-04-26T00:39:32.380Z,78.73
2019-04-26T00:40:10.347Z,76.13
2019-04-26T00:40:49.701Z,78.23
2019-04-26T00:41:28.304Z,73.20
2019-04-26T00:42:08.786Z,74.70
2019-04-26T00:42:46.689Z,73.20
2019-04-26T00:43:25.108Z,72.73
2019-04-26T00:44:03.626Z,71.70
2019-04-26T00:44:41.450Z,83.40
2019-04-26T00:45:20.984Z,74.63
2019-04-26T00:46:00.044Z,79.80
2019-04-26T00:46:39.469Z,74.23
2019-04-26T00:47:17.623Z,72.90
2019-04-26T00:47:56.198Z,73.40
2019-04-26T00:48:34.960Z,72.03
2019-04-26T00:49:13.768Z,77.43
2019-04-26T00:49:51.372Z,76.73
2019-04-26T00:50:29.155Z,76.47
2019-04-26T00:51:08.630Z,75.23
2019-04-26T00:51:46.877Z,81.53
2019-04-26T00:52:25.619Z,80.83
2019-04-26T00:53:04.231Z,68.77
2019-04-26T00:53:44.080Z,78.27
2019-04-26T00:54:25.367Z,76.93
2019-04-26T00:55:03.030Z,87.60
2019-04-26T00:55:41.093Z,74.43
2019-04-26T00:56:18.801Z,80.10
2019-04-26T00:56:58.994Z,78.83
2019-04-26T00:57:36.454Z,75.30
2019-04-26T00:58:16.574Z,76.40
2019-04-26T00:58:54.811Z,75.33
2019-04-26T00:59:33.070Z,77.50
2019-04-26T01:00:12.601Z,80.90
2019-04-26T01:00:50.062Z,74.50
2019-04-26T01:01:29.183Z,80.03
2019-04-26T01:02:13.010Z,76.20
2019-04-26T01:02:53.386Z,74.17
2019-04-26T01:03:30.420Z,71.80
2019-04-26T01:04:10.466Z,85.07
2019-04-26T01:04:47.938Z,74.50
2019-04-26T01:05:25.365Z,77.63
2019-04-26T01:06:05.049Z,79.53
2019-04-26T01:06:44.582Z,79.53
2019-04-26T01:07:21.257Z,74.47
2019-04-26T01:07:58.478Z,87.23
2019-04-26T01:08:35.680Z,72.37
2019-04-26T01:09:13.260Z,82.70
2019-04-26T01:09:50.738Z,74.97
2019-04-26T01:10:28.125Z,74.70
2019-04-26T01:11:05.512Z,74.93
2019-04-26T01:11:42.396Z,78.23
2019-04-26T01:12:19.794Z,80.30
2019-04-26T01:12:57.000Z,72.97
2019-04-26T01:13:35.024Z,79.23
2019-04-26T01:14:12.264Z,77.27
2019-04-26T01:14:49.465Z,77.27
2019-04-26T01:15:26.622Z,78.63
2019-04-26T01:16:04.136Z,75.87
2019-04-26T01:16:41.775Z,75.50
2019-04-26T01:17:20.329Z,77.90
2019-04-26T01:17:58.010Z,84.77
2019-04-26T01:18:35.696Z,81.80
2019-04-26T01:19:17.089Z,77.43
2019-04-26T01:19:55.438Z,76.53
2019-04-26T01:20:35.904Z,76.13
2019-04-26T01:21:17.092Z,76.63
2019-04-26T01:22:00.334Z,68.30
2019-04-26T01:22:42.441Z,76.47
2019-04-26T01:23:22.989Z,72.47
2019-04-26T01:24:03.982Z,77.90
2019-04-26T01:24:44.920Z,77.07
2019-04-26T01:25:43.041Z,72.80
2019-04-26T01:26:27.336Z,69.50
2019-04-26T01:27:07.159Z,72.70
2019-04-26T01:27:47.407Z,91.03
2019-04-26T01:28:35.070Z,76.13
2019-04-26T01:29:14.940Z,78.40
2019-04-26T01:29:55.488Z,71.57
2019-04-26T01:30:35.646Z,80.03
2019-04-26T01:31:15.664Z,78.50
2019-04-26T01:32:10.047Z,73.30
2019-04-26T01:32:49.190Z,72.33
2019-04-26T01:33:26.364Z,87.50
2019-04-26T01:34:04.441Z,74.73
2019-04-26T01:34:44.132Z,75.67
2019-04-26T01:35:24.340Z,75.63
2019-04-26T01:36:12.417Z,83.37
2019-04-26T01:36:41.998Z,72.73
2019-04-26T01:37:20.522Z,75.60
2019-04-26T01:38:00.340Z,68.10
2019-04-26T01:38:37.463Z,76.43
2019-04-26T01:39:19.686Z,75.07
2019-04-26T01:40:02.841Z,82.23
2019-04-26T01:40:40.937Z,72.20
2019-04-26T01:41:28.215Z,83.67
2019-04-26T01:42:12.786Z,75.77
2019-04-26T01:43:00.304Z,87.10
2019-04-26T01:44:02.440Z,74.37
2019-04-26T01:44:53.008Z,81.47
2019-04-26T01:45:46.195Z,81.97
2019-04-26T01:46:31.021Z,82.03
2019-04-26T01:47:08.406Z,78.53
2019-04-26T01:48:07.788Z,75.60
2019-04-26T01:48:52.080Z,80.30
2019-04-26T01:49:29.528Z,73.60
2019-04-26T01:50:08.234Z,78.03
2019-04-26T01:50:45.508Z,76.50
2019-04-26T01:51:29.981Z,80.60
2019-04-26T01:52:13.505Z,71.97
2019-04-26T01:52:51.048Z,82.40
2019-04-26T01:53:28.791Z,80.97
2019-04-26T01:54:06.928Z,77.53
2019-04-26T01:54:46.320Z,75.60
2019-04-26T01:55:25.066Z,81.63
2019-04-26T01:56:02.224Z,76.23
2019-04-26T01:56:43.044Z,75.50
2019-04-26T01:57:23.740Z,85.07
2019-04-26T01:58:04.601Z,76.27
2019-04-26T01:58:42.068Z,75.60
2019-04-26T01:59:21.006Z,77.23
2019-04-26T02:00:07.491Z,89.67
2019-04-26T02:00:55.697Z,76.73
2019-04-26T02:02:04.618Z,79.47
2019-04-26T02:02:53.502Z,81.47
2019-04-26T02:03:31.853Z,85.63
2019-04-26T02:04:09.999Z,79.70
2019-04-26T02:04:48.988Z,80.83
2019-04-26T02:05:27.907Z,81.07
2019-04-26T02:06:05.536Z,83.17
2019-04-26T02:06:43.093Z,78.07
2019-04-26T02:07:41.106Z,79.53
2019-04-26T02:08:19.264Z,72.37
2019-04-26T02:08:56.796Z,76.77
2019-04-26T02:09:36.336Z,81.70
2019-04-26T02:10:19.157Z,84.20
2019-04-26T02:10:56.964Z,76.73
2019-04-26T02:11:34.208Z,82.60
2019-04-26T02:12:11.508Z,78.50
2019-04-26T02:12:49.499Z,77.90
2019-04-26T02:13:30.941Z,79.80
2019-04-26T02:14:08.816Z,94.43
2019-04-26T02:14:46.373Z,83.37
2019-04-26T02:15:27.195Z,73.97
2019-04-26T02:16:04.864Z,80.97
2019-04-26T02:16:42.390Z,85.13
2019-04-26T02:17:19.935Z,81.37
2019-04-26T02:17:59.584Z,78.33
2019-04-26T02:18:42.067Z,76.70
2019-04-26T02:19:19.924Z,84.90
2019-04-26T02:19:57.415Z,74.93
2019-04-26T02:20:56.858Z,85.23
2019-04-26T02:21:39.653Z,85.67
2019-04-26T02:22:25.833Z,79.83
2019-04-26T02:23:09.348Z,80.83
2019-04-26T02:23:51.589Z,77.67
2019-04-26T02:24:35.292Z,81.50
2019-04-26T02:25:12.144Z,81.57
2019-04-26T02:25:49.516Z,80.93
2019-04-26T02:26:53.487Z,79.70
2019-04-26T02:27:32.532Z,77.20
2019-04-26T02:28:10.457Z,77.43
2019-04-26T02:28:48.688Z,83.37
2019-04-26T02:29:30.443Z,88.63
2019-04-26T02:30:08.923Z,83.10
2019-04-26T02:30:46.520Z,81.77
2019-04-26T02:31:26.660Z,73.43
2019-04-26T02:32:06.396Z,83.50
2019-04-26T02:32:44.381Z,77.67
2019-04-26T02:33:23.286Z,77.80
2019-04-26T02:34:01.699Z,79.80
2019-04-26T02:34:39.465Z,79.90
2019-04-26T02:35:17.127Z,78.37
2019-04-26T02:35:54.745Z,81.73
2019-04-26T02:36:47.880Z,79.73
2019-04-26T02:37:14.108Z,79.67
2019-04-26T02:37:52.094Z,81.87
2019-04-26T02:38:31.440Z,74.87
2019-04-26T02:39:21.517Z,80.17
2019-04-26T02:39:59.586Z,71.90
2019-04-26T02:40:37.513Z,78.73
2019-04-26T02:41:16.174Z,79.70
2019-04-26T02:41:57.444Z,83.13
2019-04-26T02:42:41.302Z,75.07
2019-04-26T02:43:22.223Z,75.10
2019-04-26T02:44:02.651Z,70.80
2019-04-26T02:44:49.764Z,74.92
2019-04-26T02:46:15.029Z,76.80
2019-04-26T02:47:16.902Z,77.03
2019-04-26T02:48:15.474Z,77.50
2019-04-26T02:49:35.070Z,77.73
2019-04-26T02:50:19.897Z,78.13
2019-04-26T02:51:04.122Z,80.13
2019-04-26T02:51:46.930Z,90.73
2019-04-26T02:52:46.643Z,82.63
2019-04-26T02:53:55.487Z,83.50
2019-04-26T02:54:47.672Z,82.10
2019-04-26T02:55:53.750Z,85.27
2019-04-26T02:56:40.738Z,87.30
2019-04-26T02:57:31.009Z,80.37
2019-04-26T02:58:20.821Z,84.87
2019-04-26T02:59:44.650Z,85.30
2019-04-26T03:00:21.562Z,84.27
2019-04-26T03:01:00.313Z,93.57
2019-04-26T03:01:38.743Z,95.20
2019-04-26T03:02:26.644Z,91.33
2019-04-26T03:03:08.055Z,95.20
2019-04-26T03:03:53.623Z,89.93
2019-04-26T03:04:33.780Z,98.00
2019-04-26T03:05:12.335Z,92.00
2019-04-26T03:05:51.718Z,89.57
2019-04-26T03:06:34.282Z,95.10
2019-04-26T03:07:17.507Z,103.73
2019-04-26T03:08:02.873Z,101.63
2019-04-26T03:08:42.643Z,104.90
2019-04-26T03:09:38.913Z,100.70
2019-04-26T03:10:16.824Z,97.13
2019-04-26T03:10:59.921Z,90.60
2019-04-26T03:11:40.853Z,108.63
2019-04-26T03:12:39.512Z,102.20
2019-04-26T03:13:43.860Z,112.87
2019-04-26T03:14:45.961Z,109.80
2019-04-26T03:15:45.058Z,106.20
2019-04-26T03:16:47.523Z,108.23
2019-04-26T03:17:43.331Z,102.47
2019-04-26T03:18:41.513Z,103.53
2019-04-26T03:19:31.696Z,100.20
2019-04-26T03:20:14.130Z,110.23
2019-04-26T03:20:58.335Z,105.63
2019-04-26T03:21:55.951Z,113.77
2019-04-26T03:22:47.459Z,111.43
2019-04-26T03:23:55.561Z,108.20
2019-04-26T03:24:22.917Z,114.17
2019-04-26T03:25:17.043Z,107.67
2019-04-26T03:26:17.792Z,111.10
2019-04-26T03:27:05.819Z,108.10
2019-04-26T03:28:32.733Z,109.93
2019-04-26T03:29:26.717Z,104.35
2019-04-26T03:30:19.814Z,104.97
2019-04-26T03:31:04.944Z,104.13
2019-04-26T03:32:45.711Z,99.65
2019-04-26T03:33:52.597Z,104.50
2019-04-26T03:34:53.700Z,109.43
2019-04-26T03:35:48.473Z,107.03
2019-04-26T03:36:46.017Z,119.70
2019-04-26T03:37:47.907Z,111.90
2019-04-26T03:38:36.236Z,99.10
2019-04-26T03:39:26.737Z,96.60
2019-04-26T03:40:38.405Z,109.50
2019-04-26T03:42:03.409Z,109.55
2019-04-26T03:43:10.429Z,104.67
2019-04-26T03:43:57.858Z,110.37
2019-04-26T03:44:44.165Z,100.20
2019-04-26T03:45:46.168Z,100.85
2019-04-26T03:46:59.585Z,100.50
2019-04-26T03:47:43.730Z,97.30
2019-04-26T03:48:58.954Z,103.32
2019-04-26T03:50:02.951Z,106.37
2019-04-26T03:50:48.164Z,102.93
2019-04-26T03:51:40.737Z,121.13
2019-04-26T03:52:46.993Z,110.07
2019-04-26T03:53:40.394Z,115.13
2019-04-26T03:54:22.422Z,108.33
2019-04-26T03:55:04.292Z,100.77
2019-04-26T03:56:26.105Z,106.13
2019-04-26T03:57:17.592Z,97.67
2019-04-26T03:57:59.494Z,109.20
2019-04-26T03:59:18.013Z,101.10
2019-04-26T04:00:25.904Z,98.53
2019-04-26T04:01:09.169Z,106.70
2019-04-26T04:02:06.980Z,98.33
2019-04-26T04:02:58.570Z,101.80
2019-04-26T04:04:04.347Z,98.20
2019-04-26T04:04:58.806Z,89.00
2019-04-26T04:05:45.562Z,119.13
2019-04-26T04:06:28.819Z,84.30
2019-04-26T04:07:09.268Z,104.47
2019-04-26T04:07:51.464Z,93.03
2019-04-26T04:08:42.302Z,94.50
2019-04-26T04:09:22.325Z,91.85
2019-04-26T04:10:05.802Z,85.80
2019-04-26T04:10:52.091Z,90.73
2019-04-26T04:11:37.750Z,97.10
2019-04-26T04:12:33.436Z,89.83
2019-04-26T04:13:25.800Z,95.10
2019-04-26T04:14:08.838Z,89.27
2019-04-26T04:14:57.000Z,83.20
2019-04-26T04:15:42.788Z,89.47
2019-04-26T04:16:32.372Z,97.17
2019-04-26T04:17:27.679Z,86.33
2019-04-26T04:18:11.084Z,89.90
2019-04-26T04:18:54.085Z,82.50
2019-04-26T04:20:18.386Z,85.80
2019-04-26T04:21:25.857Z,84.27
2019-04-26T04:22:06.673Z,84.20
2019-04-26T04:22:49.399Z,87.23
2019-04-26T04:23:45.059Z,77.93
2019-04-26T04:24:29.963Z,85.47
2019-04-26T04:25:10.998Z,76.13
2019-04-26T04:25:51.476Z,81.70
2019-04-26T04:26:41.649Z,81.73
2019-04-26T04:27:47.268Z,80.70
2019-04-26T04:29:06.032Z,89.77
2019-04-26T04:30:05.301Z,81.67
2019-04-26T04:30:56.605Z,85.07
2019-04-26T04:31:40.367Z,91.13
2019-04-26T04:32:43.789Z,84.67
2019-04-26T04:33:43.779Z,91.83
2019-04-26T04:34:44.015Z,79.77
2019-04-26T04:35:24.984Z,88.83
2019-04-26T04:36:10.739Z,87.57
2019-04-26T04:36:53.276Z,84.47
2019-04-26T04:37:34.258Z,98.20
2019-04-26T04:38:21.715Z,82.23
2019-04-26T04:39:13.014Z,91.00
2019-04-26T04:40:17.291Z,88.30
2019-04-26T04:41:15.740Z,82.60
2019-04-26T04:42:28.448Z,83.27
2019-04-26T04:43:30.818Z,79.77
2019-04-26T04:44:24.926Z,88.72
2019-04-26T04:45:27.568Z,83.50
2019-04-26T04:46:38.710Z,91.63
2019-04-26T04:47:32.889Z,69.95
2019-04-26T04:48:31.686Z,77.17
2019-04-26T04:49:28.671Z,84.07
2019-04-26T04:50:35.981Z,86.50
2019-04-26T04:51:36.079Z,81.80
2019-04-26T04:52:24.104Z,86.77
2019-04-26T04:53:19.129Z,80.03
2019-04-26T04:54:02.516Z,87.13
2019-04-26T04:54:44.722Z,84.60
2019-04-26T04:55:50.091Z,81.42
2019-04-26T04:57:04.954Z,76.90
2019-04-26T04:58:16.544Z,81.03
2019-04-26T04:58:56.962Z,76.03
2019-04-26T05:00:03.990Z,74.60
2019-04-26T05:01:48.267Z,69.97
2019-04-26T05:02:42.427Z,73.77
2019-04-26T05:03:40.674Z,68.13
2019-04-26T05:04:32.617Z,70.67
2019-04-26T05:05:49.055Z,67.83
2019-04-26T05:06:49.114Z,68.90
2019-04-26T05:07:40.305Z,67.10
2019-04-26T05:08:42.888Z,66.90
2019-04-26T05:09:33.353Z,68.77
2019-04-26T05:10:21.890Z,63.33
2019-04-26T05:11:10.425Z,61.63
2019-04-26T05:11:56.712Z,60.17
2019-04-26T05:12:41.626Z,65.73
2019-04-26T05:13:50.177Z,65.47
2019-04-26T05:14:52.277Z,61.80
2019-04-26T05:16:19.061Z,54.73
2019-04-26T05:17:49.625Z,63.90
2019-04-26T05:19:26.056Z,60.10
2019-04-26T05:20:29.370Z,76.50
2019-04-26T05:21:40.233Z,66.70
2019-04-26T05:22:57.103Z,55.30
2019-04-26T05:24:00.170Z,57.53
2019-04-26T05:24:49.838Z,62.43
2019-04-26T05:26:22.102Z,68.70
2019-04-26T05:27:58.403Z,65.60
2019-04-26T05:29:02.667Z,60.70
2019-04-26T05:30:16.190Z,55.53
2019-04-26T05:31:25.106Z,63.23
2019-04-26T05:32:52.653Z,59.43
2019-04-26T05:33:58.430Z,63.87
2019-04-26T05:34:52.839Z,59.23
2019-04-26T05:35:49.196Z,68.20
2019-04-26T05:36:52.764Z,55.00
2019-04-26T05:38:03.157Z,53.23
2019-04-26T05:39:09.092Z,57.80
2019-04-26T05:40:15.308Z,63.73
2019-04-26T05:41:31.275Z,58.07
2019-04-26T05:42:48.272Z,72.20
2019-04-26T05:43:46.010Z,61.43
2019-04-26T05:45:10.618Z,67.80
2019-04-26T05:46:12.918Z,70.27
2019-04-26T05:47:40.778Z,64.70
2019-04-26T05:48:46.324Z,62.33
2019-04-26T05:50:22.880Z,67.60
2019-04-26T05:51:30.922Z,60.10
2019-04-26T05:52:53.126Z,65.37
2019-04-26T05:54:35.010Z,59.93
2019-04-26T05:55:47.700Z,58.03
2019-04-26T05:56:44.304Z,65.00
2019-04-26T05:57:50.985Z,61.57
2019-04-26T05:58:40.317Z,63.83
2019-04-26T05:59:26.818Z,57.20
2019-04-26T06:00:30.952Z,58.40
2019-04-26T06:01:56.971Z,57.50
2019-04-26T06:03:03.207Z,61.20
2019-04-26T06:04:23.135Z,58.90
2019-04-26T06:05:44.789Z,57.03
2019-04-26T06:06:35.174Z,57.60
2019-04-26T06:07:26.790Z,51.20
2019-04-26T06:08:36.012Z,58.77
2019-04-26T06:09:41.652Z,61.30
2019-04-26T06:10:41.762Z,60.20
2019-04-26T06:11:28.352Z,57.73
2019-04-26T06:12:29.136Z,59.50
2019-04-26T06:14:05.686Z,70.13
2019-04-26T06:15:07.184Z,56.80
2019-04-26T06:16:08.992Z,67.83
2019-04-26T06:17:17.736Z,58.00
2019-04-26T06:18:24.194Z,60.67
2019-04-26T06:19:20.066Z,58.53
2019-04-26T06:20:22.722Z,58.53
2019-04-26T06:21:02.140Z,59.83
2019-04-26T06:22:07.301Z,58.73
2019-04-26T06:23:17.781Z,62.37
2019-04-26T06:24:25.264Z,67.33
2019-04-26T06:25:26.195Z,59.67
2019-04-26T06:26:36.130Z,62.20
2019-04-26T06:27:42.244Z,57.13
2019-04-26T06:28:50.374Z,52.77
2019-04-26T06:29:49.993Z,59.00
2019-04-26T06:30:45.349Z,61.10
2019-04-26T06:31:29.104Z,62.60
2019-04-26T06:32:28.375Z,65.93
2019-04-26T06:33:11.700Z,54.00
2019-04-26T06:34:31.514Z,56.97
2019-04-26T06:35:14.123Z,60.13
2019-04-26T06:35:59.851Z,59.33
2019-04-26T06:36:55.988Z,61.23
2019-04-26T06:37:49.420Z,57.93
2019-04-26T06:39:12.981Z,66.30
2019-04-26T06:40:14.882Z,59.00
2019-04-26T06:42:00.783Z,53.20
2019-04-26T06:43:37.798Z,65.17
2019-04-26T06:44:19.805Z,59.33
2019-04-26T06:45:17.925Z,63.87
2019-04-26T06:46:33.417Z,53.60
2019-04-26T06:47:23.368Z,63.83
2019-04-26T06:48:08.754Z,60.53
2019-04-26T06:49:10.583Z,54.77
2019-04-26T06:50:27.814Z,58.27
2019-04-26T06:51:24.095Z,55.73
2019-04-26T06:52:01.080Z,52.23
2019-04-26T06:52:44.528Z,59.67
2019-04-26T06:53:44.245Z,59.23
2019-04-26T06:54:33.145Z,54.50
2019-04-26T06:55:27.220Z,56.50
2019-04-26T06:56:31.312Z,56.57
2019-04-26T06:57:41.054Z,56.93
2019-04-26T06:59:03.611Z,58.20
2019-04-26T06:59:55.028Z,49.87
2019-04-26T07:00:44.660Z,54.07
2019-04-26T07:01:49.066Z,51.10
2019-04-26T07:02:42.460Z,59.60
2019-04-26T07:03:33.261Z,56.60
2019-04-26T07:04:30.549Z,64.93
2019-04-26T07:05:35.163Z,53.77
2019-04-26T07:06:16.170Z,52.83
2019-04-26T07:07:13.830Z,60.40
2019-04-26T07:08:28.944Z,53.63
2019-04-26T07:09:11.646Z,60.83
2019-04-26T07:10:25.466Z,66.70
2019-04-26T07:11:59.381Z,53.77
2019-04-26T07:13:00.968Z,60.63
2019-04-26T07:14:02.732Z,51.20
2019-04-26T07:15:05.886Z,50.60
2019-04-26T07:15:50.262Z,50.47
2019-04-26T07:16:40.975Z,60.57
2019-04-26T07:17:23.550Z,50.30
2019-04-26T07:18:20.326Z,53.13
2019-04-26T07:19:22.766Z,52.13
2019-04-26T07:20:36.494Z,49.93
2019-04-26T07:21:43.154Z,51.77
2019-04-26T07:22:45.108Z,50.53
2019-04-26T07:24:22.735Z,49.00
2019-04-26T07:25:28.330Z,47.97
2019-04-26T07:26:50.162Z,51.03
2019-04-26T07:28:03.708Z,51.93
2019-04-26T07:28:47.092Z,59.13
2019-04-26T07:29:51.286Z,54.90
2019-04-26T07:31:02.559Z,49.53
2019-04-26T07:31:59.258Z,48.00
2019-04-26T07:33:12.613Z,51.83
2019-04-26T07:34:16.592Z,53.00
2019-04-26T07:35:30.240Z,55.17
2019-04-26T07:36:22.575Z,50.63
2019-04-26T07:37:43.580Z,50.90
2019-04-26T07:39:20.340Z,50.43
2019-04-26T07:40:56.535Z,59.70
2019-04-26T07:42:07.460Z,46.33
2019-04-26T07:43:18.937Z,53.33
2019-04-26T07:44:24.728Z,51.23
2019-04-26T07:45:18.948Z,48.33
2019-04-26T07:46:19.612Z,44.40
2019-04-26T07:47:45.692Z,50.60
2019-04-26T07:48:37.915Z,53.17
2019-04-26T07:49:58.914Z,50.43
2019-04-26T07:51:15.204Z,54.67
2019-04-26T07:52:15.746Z,49.77
2019-04-26T07:53:34.286Z,53.67
2019-04-26T07:55:10.920Z,53.03
2019-04-26T07:56:02.338Z,51.67
2019-04-26T07:57:22.930Z,48.20
2019-04-26T07:58:37.930Z,52.77
2019-04-26T08:00:01.242Z,49.03
2019-04-26T08:00:50.386Z,46.57
2019-04-26T08:02:09.090Z,49.20
2019-04-26T08:03:15.030Z,51.77
2019-04-26T08:04:03.810Z,40.10
2019-04-26T08:04:47.761Z,56.43
2019-04-26T08:05:41.277Z,49.63
2019-04-26T08:06:34.690Z,46.90
2019-04-26T08:07:20.049Z,45.23
2019-04-26T08:07:59.656Z,47.47
2019-04-26T08:08:48.746Z,46.90
2019-04-26T08:09:29.498Z,43.53
2019-04-26T08:10:10.704Z,45.47
2019-04-26T08:11:01.048Z,52.17
2019-04-26T08:11:45.900Z,40.60
2019-04-26T08:12:26.555Z,52.53
2019-04-26T08:13:08.103Z,55.10
2019-04-26T08:14:31.239Z,45.07
2019-04-26T08:15:34.816Z,48.27
2019-04-26T08:16:40.969Z,47.33
2019-04-26T08:17:43.539Z,50.00
2019-04-26T08:18:30.489Z,42.40
2019-04-26T08:19:14.705Z,43.93
2019-04-26T08:20:08.150Z,48.73
2019-04-26T08:20:51.752Z,50.13
2019-04-26T08:21:36.630Z,46.70
2019-04-26T08:22:23.058Z,39.23
2019-04-26T08:23:02.748Z,44.27
2019-04-26T08:23:56.503Z,42.77
2019-04-26T08:24:35.216Z,40.70
2019-04-26T08:25:14.578Z,45.00
2019-04-26T08:25:55.162Z,45.73
2019-04-26T08:26:35.296Z,44.80
2019-04-26T08:27:23.274Z,42.73
2019-04-26T08:28:02.561Z,45.23
2019-04-26T08:28:46.015Z,43.43
2019-04-26T08:29:29.890Z,41.33
2019-04-26T08:30:16.093Z,40.10
2019-04-26T08:30:55.033Z,44.43
2019-04-26T08:31:35.202Z,41.57
2019-04-26T08:32:20.716Z,39.00
2019-04-26T08:33:07.528Z,36.90
2019-04-26T08:33:49.879Z,41.37
2019-04-26T08:34:33.733Z,46.13
2019-04-26T08:35:21.903Z,42.40
2019-04-26T08:36:03.113Z,36.43
2019-04-26T08:36:52.391Z,39.00
2019-04-26T08:38:08.022Z,41.10
2019-04-26T08:38:40.280Z,46.13
2019-04-26T08:39:32.505Z,42.03
2019-04-26T08:40:05.907Z,51.00
2019-04-26T08:40:44.428Z,46.40
2019-04-26T08:41:23.529Z,43.77
2019-04-26T08:42:02.288Z,35.80
2019-04-26T08:42:53.320Z,40.83
2019-04-26T08:44:05.727Z,46.23
2019-04-26T08:44:58.796Z,41.00
2019-04-26T08:46:03.269Z,40.23
2019-04-26T08:47:06.085Z,41.40
2019-04-26T08:47:54.206Z,42.83
2019-04-26T08:48:45.879Z,46.47
2019-04-26T08:49:54.092Z,43.47
2019-04-26T08:50:37.001Z,41.10
2019-04-26T08:51:20.478Z,41.53
2019-04-26T08:52:00.201Z,40.57
2019-04-26T08:52:41.861Z,39.40
2019-04-26T08:53:20.240Z,39.50
2019-04-26T08:53:59.531Z,37.57
2019-04-26T08:54:42.192Z,41.00
2019-04-26T08:55:21.592Z,36.03
2019-04-26T08:56:01.851Z,49.00
2019-04-26T08:56:42.783Z,38.60
2019-04-26T08:57:33.031Z,43.30
2019-04-26T08:58:15.828Z,39.43
2019-04-26T08:58:56.366Z,43.60
2019-04-26T08:59:38.037Z,35.47
2019-04-26T09:00:35.647Z,46.73
2019-04-26T09:01:28.179Z,47.77
2019-04-26T09:02:20.710Z,34.33
2019-04-26T09:03:15.998Z,42.10
2019-04-26T09:03:59.039Z,39.13
2019-04-26T09:04:47.526Z,36.37
2019-04-26T09:05:49.978Z,41.87
2019-04-26T09:06:39.794Z,37.00
2019-04-26T09:07:22.855Z,40.27
2019-04-26T09:08:04.011Z,38.20
2019-04-26T09:08:45.014Z,33.53
2019-04-26T09:09:26.677Z,33.90
2019-04-26T09:10:11.150Z,44.33
2019-04-26T09:10:48.728Z,35.40
2019-04-26T09:11:33.534Z,37.57
2019-04-26T09:12:22.466Z,40.50
2019-04-26T09:12:55.672Z,37.30
2019-04-26T09:13:36.503Z,39.47
2019-04-26T09:14:17.495Z,29.90
2019-04-26T09:14:57.869Z,42.30
2019-04-26T09:16:04.048Z,32.57
2019-04-26T09:16:50.085Z,34.50
2019-04-26T09:17:27.833Z,36.27
2019-04-26T09:18:06.106Z,35.93
2019-04-26T09:18:52.356Z,32.07
2019-04-26T09:19:30.446Z,39.03
2019-04-26T09:20:10.692Z,29.80
2019-04-26T09:20:56.818Z,34.97
2019-04-26T09:21:47.545Z,37.73
2019-04-26T09:22:42.051Z,34.33
2019-04-26T09:23:55.806Z,33.47
2019-04-26T09:24:55.144Z,45.03
2019-04-26T09:25:39.340Z,36.90
2019-04-26T09:26:22.111Z,36.93
2019-04-26T09:27:09.415Z,32.60
2019-04-26T09:27:53.335Z,28.77
2019-04-26T09:28:47.965Z,29.63
2019-04-26T09:29:32.182Z,30.77
2019-04-26T09:30:15.161Z,37.60
2019-04-26T09:31:06.259Z,36.90
2019-04-26T09:31:50.640Z,34.13
2019-04-26T09:32:40.685Z,34.00
2019-04-26T09:33:26.570Z,34.73
2019-04-26T09:34:10.332Z,51.50
2019-04-26T09:34:45.456Z,35.23
2019-04-26T09:35:26.465Z,35.13
2019-04-26T09:36:05.934Z,42.40
2019-04-26T09:36:44.392Z,35.93
2019-04-26T09:37:25.763Z,40.80
2019-04-26T09:38:08.997Z,32.80
2019-04-26T09:38:51.217Z,30.50
2019-04-26T09:39:30.449Z,35.60
2019-04-26T09:40:10.969Z,31.73
2019-04-26T09:40:55.853Z,35.73
2019-04-26T09:41:35.534Z,42.47
2019-04-26T09:42:26.722Z,35.50
2019-04-26T09:43:33.393Z,31.60
2019-04-26T09:44:20.339Z,32.40
2019-04-26T09:45:13.987Z,42.00
2019-04-26T09:46:23.379Z,35.57
2019-04-26T09:47:16.395Z,37.23
2019-04-26T09:48:02.481Z,33.43
2019-04-26T09:48:44.872Z,35.80
2019-04-26T09:49:52.369Z,29.67
2019-04-26T09:50:49.926Z,37.43
2019-04-26T09:51:28.189Z,32.00
2019-04-26T09:52:07.779Z,40.37
2019-04-26T09:52:48.891Z,31.70
2019-04-26T09:53:26.913Z,45.77
2019-04-26T09:54:05.065Z,38.83
2019-04-26T09:54:43.466Z,40.60
2019-04-26T09:55:21.265Z,31.13
2019-04-26T09:55:58.633Z,37.33
2019-04-26T09:56:38.199Z,34.67
2019-04-26T09:57:15.612Z,30.87
2019-04-26T09:57:53.475Z,49.70
2019-04-26T09:58:33.047Z,35.73
2019-04-26T09:59:12.224Z,32.97
2019-04-26T09:59:49.091Z,32.00
2019-04-26T10:00:28.637Z,35.10
2019-04-26T10:01:08.734Z,33.63
2019-04-26T10:01:47.918Z,32.97
2019-04-26T10:02:29.491Z,38.63
2019-04-26T10:03:10.796Z,35.03
2019-04-26T10:03:50.265Z,32.63
2019-04-26T10:04:27.445Z,30.93
2019-04-26T10:05:08.152Z,30.50
2019-04-26T10:05:45.157Z,26.80
2019-04-26T10:06:22.485Z,31.57
2019-04-26T10:07:03.202Z,34.10
2019-04-26T10:07:39.109Z,35.23
2019-04-26T10:08:20.245Z,34.40
2019-04-26T10:08:58.065Z,34.90
2019-04-26T10:09:35.785Z,36.53
2019-04-26T10:10:22.617Z,27.67
2019-04-26T10:10:53.291Z,40.67
2019-04-26T10:11:39.608Z,32.80
2019-04-26T10:12:24.466Z,26.70
2019-04-26T10:13:19.561Z,35.50
2019-04-26T10:14:04.169Z,37.40
2019-04-26T10:15:01.264Z,37.60
2019-04-26T10:15:51.191Z,34.63
2019-04-26T10:16:37.621Z,33.43
2019-04-26T10:17:21.535Z,37.47
2019-04-26T10:17:59.525Z,35.03
2019-04-26T10:18:37.743Z,30.20
2019-04-26T10:19:18.939Z,31.60
2019-04-26T10:20:00.891Z,39.40
2019-04-26T10:20:38.681Z,36.47
2019-04-26T10:21:16.376Z,34.73
2019-04-26T10:21:53.795Z,39.57
2019-04-26T10:22:32.817Z,37.50
2019-04-26T10:23:09.633Z,40.53
2019-04-26T10:23:47.226Z,34.53
2019-04-26T10:24:24.985Z,34.67
2019-04-26T10:25:07.683Z,33.43
2019-04-26T10:25:42.923Z,39.67
2019-04-26T10:26:23.363Z,39.00
2019-04-26T10:27:03.429Z,37.97
2019-04-26T10:27:41.084Z,38.63
2019-04-26T10:28:19.869Z,32.77
2019-04-26T10:28:57.793Z,34.30
2019-04-26T10:29:35.349Z,31.73
2019-04-26T10:30:14.770Z,35.47
2019-04-26T10:30:52.200Z,33.27
2019-04-26T10:31:29.519Z,27.27
2019-04-26T10:32:09.455Z,35.80
2019-04-26T10:32:47.493Z,29.27
2019-04-26T10:33:26.616Z,37.13
2019-04-26T10:34:07.822Z,33.80
2019-04-26T10:34:47.329Z,33.80
2019-04-26T10:35:23.229Z,32.40
2019-04-26T10:36:00.285Z,29.53
2019-04-26T10:36:38.337Z,31.10
2019-04-26T10:37:15.381Z,35.63
2019-04-26T10:37:53.345Z,30.83
2019-04-26T10:38:33.075Z,25.83
2019-04-26T10:39:12.109Z,26.87
2019-04-26T10:39:49.487Z,36.73
2019-04-26T10:40:35.359Z,33.47